createdAt,value
2023-03-08T00:01:57.899Z,21.53
2023-03-08T00:04:24.556Z,23.23
2023-03-08T00:06:51.161Z,24.93
2023-03-08T00:09:17.691Z,23.97
2023-03-08T00:11:44.245Z,26.90
2023-03-08T00:14:10.824Z,24.37
2023-03-08T00:16:37.425Z,23.73
2023-03-08T00:19:04.022Z,24.43
2023-03-08T00:21:30.550Z,23.23
2023-03-08T00:23:57.118Z,24.50
2023-03-08T00:26:23.709Z,21.17
2023-03-08T00:28:50.378Z,19.80
2023-03-08T00:31:17.090Z,20.93
2023-03-08T00:33:43.762Z,27.23
2023-03-08T00:36:15.173Z,21.13
2023-03-08T00:38:42.016Z,22.77
2023-03-08T00:41:08.830Z,25.60
2023-03-08T00:43:35.639Z,24.57
2023-03-08T00:46:02.319Z,21.17
2023-03-08T00:48:28.870Z,22.03
2023-03-08T00:50:55.547Z,24.90
2023-03-08T00:53:22.194Z,20.90
2023-03-08T00:55:50.608Z,27.10
2023-03-08T00:58:17.566Z,27.80
2023-03-08T01:00:44.798Z,30.23
2023-03-08T01:03:11.522Z,25.37
2023-03-08T01:05:46.616Z,25.07
2023-03-08T01:08:14.675Z,30.50
2023-03-08T01:10:47.247Z,27.93
2023-03-08T01:13:13.933Z,28.57
2023-03-08T01:15:40.524Z,25.10
2023-03-08T01:18:07.081Z,27.10
2023-03-08T01:20:33.793Z,29.10
2023-03-08T01:23:00.698Z,32.13
2023-03-08T01:25:27.850Z,25.83
2023-03-08T01:27:54.478Z,22.97
2023-03-08T01:30:21.263Z,21.67
2023-03-08T01:32:47.861Z,19.87
2023-03-08T01:35:14.421Z,28.40
2023-03-08T01:37:41.105Z,23.67
2023-03-08T01:40:08.902Z,24.87
2023-03-08T01:42:38.151Z,29.13
2023-03-08T01:45:26.348Z,26.77
2023-03-08T01:47:52.921Z,23.87
2023-03-08T01:50:20.020Z,25.60
2023-03-08T01:52:51.613Z,26.00
2023-03-08T01:55:19.387Z,25.10
2023-03-08T01:57:54.167Z,22.00
2023-03-08T02:00:23.119Z,21.60
2023-03-08T02:03:03.924Z,25.67
2023-03-08T02:05:31.507Z,25.73
2023-03-08T02:07:58.247Z,23.80
2023-03-08T02:10:24.918Z,27.27
2023-03-08T02:12:52.045Z,25.43
2023-03-08T02:15:20.353Z,33.00
2023-03-08T02:17:47.709Z,27.77
2023-03-08T02:20:35.490Z,32.67
2023-03-08T02:23:12.693Z,32.63
2023-03-08T02:25:40.195Z,30.43
2023-03-08T02:28:06.925Z,30.63
2023-03-08T02:30:36.938Z,35.17
2023-03-08T02:33:03.946Z,39.50
2023-03-08T02:35:30.788Z,34.47
2023-03-08T02:37:57.340Z,31.83
2023-03-08T02:40:23.997Z,42.57
2023-03-08T02:42:53.193Z,39.30
2023-03-08T02:45:20.015Z,34.70
2023-03-08T02:47:46.627Z,37.27
2023-03-08T02:50:13.298Z,37.60
2023-03-08T02:52:39.910Z,41.37
2023-03-08T02:55:07.136Z,42.33
2023-03-08T02:57:33.680Z,38.97
2023-03-08T03:00:00.291Z,49.13
2023-03-08T03:02:27.045Z,44.37
2023-03-08T03:04:53.614Z,46.47
2023-03-08T03:07:20.184Z,41.93
2023-03-08T03:09:46.774Z,43.33
2023-03-08T03:12:13.308Z,48.87
2023-03-08T03:14:39.889Z,50.83
2023-03-08T03:17:06.510Z,43.23
2023-03-08T03:19:33.107Z,46.87
2023-03-08T03:21:59.664Z,45.70
2023-03-08T03:24:26.235Z,41.43
2023-03-08T03:26:53.036Z,45.70
2023-03-08T03:29:19.616Z,43.77
2023-03-08T03:31:46.261Z,47.27
2023-03-08T03:34:12.818Z,44.30
2023-03-08T03:36:39.391Z,46.00
2023-03-08T03:39:06.154Z,42.80
2023-03-08T03:41:32.718Z,52.20
2023-03-08T03:43:59.295Z,46.87
2023-03-08T03:46:26.086Z,43.33
2023-03-08T03:48:52.889Z,48.33
2023-03-08T03:51:21.963Z,52.57
2023-03-08T03:53:49.192Z,51.13
2023-03-08T03:56:25.437Z,52.23
2023-03-08T03:58:52.948Z,55.90
2023-03-08T04:01:28.764Z,57.17
2023-03-08T04:03:56.623Z,46.83
2023-03-08T04:06:31.229Z,54.87
2023-03-08T04:09:01.403Z,52.47
2023-03-08T04:11:31.804Z,52.83
2023-03-08T04:13:58.377Z,65.10
2023-03-08T04:16:29.427Z,56.10
2023-03-08T04:19:01.764Z,56.63
2023-03-08T04:21:29.187Z,55.40
2023-03-08T04:23:56.272Z,51.10
2023-03-08T04:26:23.999Z,51.87
2023-03-08T04:28:51.518Z,57.50
2023-03-08T04:31:24.494Z,59.17
2023-03-08T04:33:51.685Z,49.97
2023-03-08T04:36:19.441Z,51.00
2023-03-08T04:38:46.881Z,56.80
2023-03-08T04:41:13.780Z,47.90
2023-03-08T04:43:51.848Z,53.33
2023-03-08T04:46:20.245Z,56.57
2023-03-08T04:48:47.142Z,54.60
2023-03-08T04:51:16.024Z,52.43
2023-03-08T04:53:44.479Z,47.10
2023-03-08T04:56:12.294Z,66.47
2023-03-08T04:58:39.018Z,65.13
2023-03-08T05:01:10.921Z,54.43
2023-03-08T05:03:37.560Z,63.13
2023-03-08T05:06:04.900Z,58.70
2023-03-08T05:08:31.448Z,54.63
2023-03-08T05:11:01.027Z,64.93
2023-03-08T05:13:30.814Z,59.03
2023-03-08T05:15:58.105Z,54.87
2023-03-08T05:18:24.973Z,57.63
2023-03-08T05:21:03.596Z,49.60
2023-03-08T05:23:30.758Z,56.07
2023-03-08T05:26:01.806Z,48.97
2023-03-08T05:28:31.017Z,59.27
2023-03-08T05:31:12.505Z,49.67
2023-03-08T05:33:39.637Z,53.60
2023-03-08T05:36:07.420Z,55.27
2023-03-08T05:38:34.303Z,49.57
2023-03-08T05:41:06.917Z,50.40
2023-03-08T05:43:33.954Z,48.23
2023-03-08T05:46:07.897Z,49.80
2023-03-08T05:48:35.788Z,56.63
2023-03-08T05:51:20.456Z,51.87
2023-03-08T05:53:47.267Z,48.53
2023-03-08T05:56:19.505Z,53.60
2023-03-08T05:58:48.208Z,48.00
2023-03-08T06:01:21.021Z,49.90
2023-03-08T06:03:50.190Z,50.57
2023-03-08T06:06:17.789Z,52.10
2023-03-08T06:08:44.912Z,47.07
2023-03-08T06:11:11.685Z,45.50
2023-03-08T06:13:38.404Z,55.30
2023-03-08T06:16:06.067Z,46.20
2023-03-08T06:18:33.625Z,47.40
2023-03-08T06:21:03.680Z,56.60
2023-03-08T06:23:31.569Z,51.30
2023-03-08T06:25:58.613Z,50.07
2023-03-08T06:28:26.473Z,45.33
2023-03-08T06:30:53.293Z,47.17
2023-03-08T06:33:22.123Z,46.07
2023-03-08T06:36:10.716Z,44.30
2023-03-08T06:38:39.090Z,42.83
2023-03-08T06:41:06.816Z,41.17
2023-03-08T06:43:33.805Z,42.37
2023-03-08T06:46:04.489Z,46.10
2023-03-08T06:48:31.156Z,49.73
2023-03-08T06:50:57.715Z,41.53
2023-03-08T06:53:24.265Z,42.50
2023-03-08T06:55:50.788Z,37.93
2023-03-08T06:58:17.364Z,37.00
2023-03-08T07:00:43.929Z,39.23
2023-03-08T07:03:12.532Z,34.43
2023-03-08T07:05:39.411Z,34.03
2023-03-08T07:08:06.832Z,38.20
2023-03-08T07:10:33.978Z,33.10
2023-03-08T07:13:00.684Z,30.93
2023-03-08T07:15:27.379Z,32.00
2023-03-08T07:17:55.971Z,25.70
2023-03-08T07:20:25.111Z,30.70
2023-03-08T07:22:51.889Z,27.00
2023-03-08T07:25:20.093Z,21.37
2023-03-08T07:27:47.084Z,24.57
2023-03-08T07:30:15.320Z,20.07
2023-03-08T07:32:43.125Z,18.77
2023-03-08T07:35:12.388Z,19.60
2023-03-08T07:37:39.096Z,18.23
2023-03-08T07:40:07.261Z,17.50
2023-03-08T07:42:34.096Z,20.23
2023-03-08T07:45:00.627Z,20.07
2023-03-08T07:47:27.414Z,16.70
2023-03-08T07:49:53.990Z,18.20
2023-03-08T07:52:20.633Z,12.77
2023-03-08T07:54:47.190Z,16.27
2023-03-08T07:57:14.487Z,18.20
2023-03-08T07:59:41.764Z,14.30
2023-03-08T08:02:15.114Z,18.10
2023-03-08T08:04:41.946Z,13.90
2023-03-08T08:07:12.702Z,19.90
2023-03-08T08:09:39.406Z,16.50
2023-03-08T08:12:06.580Z,12.10
2023-03-08T08:14:33.303Z,12.83
2023-03-08T08:16:59.887Z,14.00
2023-03-08T08:19:26.552Z,14.63
2023-03-08T08:21:53.138Z,16.17
2023-03-08T08:24:19.693Z,13.43
2023-03-08T08:26:46.293Z,16.87
2023-03-08T08:29:13.036Z,14.97
2023-03-08T08:31:39.672Z,16.40
2023-03-08T08:34:06.337Z,15.43
2023-03-08T08:36:32.886Z,8.97
2023-03-08T08:38:59.601Z,14.13
2023-03-08T08:41:27.919Z,7.30
2023-03-08T08:43:58.813Z,13.17
2023-03-08T08:46:27.667Z,9.60
2023-03-08T08:48:55.640Z,8.20
2023-03-08T08:51:22.547Z,9.90
2023-03-08T08:53:50.298Z,9.57
2023-03-08T08:56:27.093Z,9.60
2023-03-08T08:58:55.922Z,10.77
2023-03-08T09:01:25.461Z,10.33
2023-03-08T09:03:52.366Z,10.97
2023-03-08T09:06:21.992Z,11.10
2023-03-08T09:08:57.225Z,10.87
2023-03-08T09:11:25.588Z,13.23
2023-03-08T09:13:53.041Z,12.30
2023-03-08T09:16:28.636Z,13.07
2023-03-08T09:18:56.779Z,14.30
2023-03-08T09:21:24.736Z,13.50
2023-03-08T09:23:51.560Z,16.63
2023-03-08T09:26:18.422Z,18.80
2023-03-08T09:28:45.330Z,18.93
2023-03-08T09:31:18.180Z,21.63
2023-03-08T09:33:49.675Z,23.73
2023-03-08T09:36:16.470Z,26.33
2023-03-08T09:38:43.208Z,25.20
2023-03-08T09:41:18.958Z,22.07
2023-03-08T09:43:56.574Z,21.70
2023-03-08T09:46:30.462Z,18.03
2023-03-08T09:49:00.872Z,12.70
2023-03-08T09:51:34.948Z,11.77
2023-03-08T09:54:07.666Z,11.67
2023-03-08T09:56:43.043Z,10.10
2023-03-08T09:59:21.223Z,6.80
2023-03-08T10:02:16.309Z,8.73
2023-03-08T10:05:12.870Z,8.70
2023-03-08T10:07:57.926Z,9.33
2023-03-08T10:10:35.244Z,8.30
2023-03-08T10:13:13.722Z,8.13
2023-03-08T10:15:44.113Z,6.07
2023-03-08T10:18:18.206Z,7.40
2023-03-08T10:20:46.518Z,6.87
2023-03-08T10:23:16.429Z,7.40
2023-03-08T10:25:44.340Z,7.33
2023-03-08T10:28:16.976Z,7.73
2023-03-08T10:30:51.129Z,8.67
2023-03-08T10:33:21.850Z,7.07
2023-03-08T10:36:06.045Z,6.60
2023-03-08T10:38:36.385Z,8.53
2023-03-08T10:41:07.097Z,8.80
2023-03-08T10:43:39.136Z,9.40
2023-03-08T10:46:12.562Z,8.17
2023-03-08T10:48:39.115Z,7.27
2023-03-08T10:51:15.228Z,7.97
2023-03-08T10:53:59.767Z,6.77
2023-03-08T10:56:44.795Z,5.90
2023-03-08T10:59:32.939Z,7.60
2023-03-08T11:02:03.499Z,5.43
2023-03-08T11:04:31.281Z,6.97
2023-03-08T11:06:58.939Z,7.10
2023-03-08T11:09:31.132Z,8.03
2023-03-08T11:11:59.976Z,7.00
2023-03-08T11:14:28.170Z,5.60
2023-03-08T11:17:05.213Z,5.90
2023-03-08T11:19:57.400Z,6.30
2023-03-08T11:22:48.924Z,8.20
2023-03-08T11:25:47.921Z,7.07
2023-03-08T11:28:28.180Z,5.97
2023-03-08T11:31:00.746Z,6.23
2023-03-08T11:33:42.828Z,5.13
2023-03-08T11:36:16.832Z,4.50
2023-03-08T11:38:47.254Z,3.97
2023-03-08T11:41:58.897Z,4.30
2023-03-08T11:44:36.976Z,4.93
2023-03-08T11:47:22.465Z,5.67
2023-03-08T11:50:05.795Z,4.57
2023-03-08T11:52:49.906Z,3.23
2023-03-08T11:55:31.222Z,3.70
2023-03-08T11:58:22.290Z,3.80
2023-03-08T12:00:52.024Z,3.30
2023-03-08T12:03:23.516Z,2.90
2023-03-08T12:05:55.276Z,2.87
2023-03-08T12:08:28.997Z,2.57
2023-03-08T12:11:06.906Z,3.90
2023-03-08T12:13:44.598Z,2.53
2023-03-08T12:16:29.107Z,2.60
2023-03-08T12:19:15.394Z,3.03
2023-03-08T12:21:54.390Z,4.57
2023-03-08T12:24:35.779Z,2.90
2023-03-08T12:27:14.964Z,2.97
2023-03-08T12:30:16.985Z,3.20
2023-03-08T12:32:44.800Z,3.00
2023-03-08T12:35:23.496Z,3.37
2023-03-08T12:38:26.457Z,3.83
2023-03-08T12:40:55.327Z,4.23
2023-03-08T12:43:21.915Z,4.00
2023-03-08T12:46:04.675Z,4.30
2023-03-08T12:48:38.830Z,4.60
2023-03-08T12:51:15.492Z,4.87
2023-03-08T12:53:56.637Z,3.93
2023-03-08T12:56:32.170Z,4.40
2023-03-08T12:59:23.357Z,6.10
2023-03-08T13:02:00.878Z,5.23
2023-03-08T13:04:41.492Z,8.13
2023-03-08T13:07:20.490Z,4.87
2023-03-08T13:09:55.796Z,5.20
2023-03-08T13:12:41.879Z,6.20
2023-03-08T13:15:11.218Z,5.63
2023-03-08T13:17:41.151Z,6.07
2023-03-08T13:20:27.081Z,4.73
2023-03-08T13:23:14.735Z,6.00
2023-03-08T13:26:06.024Z,6.70
2023-03-08T13:28:46.517Z,7.80
2023-03-08T13:31:29.078Z,6.77
2023-03-08T13:33:59.138Z,6.90
2023-03-08T13:36:28.776Z,7.20
2023-03-08T13:39:07.703Z,5.50
2023-03-08T13:41:39.880Z,6.97
2023-03-08T13:44:27.711Z,6.00
2023-03-08T13:46:57.353Z,4.00
2023-03-08T13:49:34.814Z,6.20
2023-03-08T13:52:04.502Z,6.03
2023-03-08T13:54:34.935Z,5.07
2023-03-08T13:57:06.255Z,6.50
2023-03-08T13:59:34.631Z,5.83
2023-03-08T14:02:01.504Z,4.60
2023-03-08T14:04:30.246Z,4.97
2023-03-08T14:06:58.996Z,5.40
2023-03-08T14:09:25.965Z,13.47
2023-03-08T14:11:57.726Z,7.30
2023-03-08T14:14:28.055Z,5.13
2023-03-08T14:16:55.296Z,6.40
2023-03-08T14:19:37.700Z,6.83
2023-03-08T14:22:12.387Z,5.70
2023-03-08T14:24:40.435Z,9.53
2023-03-08T14:27:37.904Z,6.30
2023-03-08T14:30:12.970Z,5.70
2023-03-08T14:32:42.466Z,6.57
2023-03-08T14:35:22.027Z,5.77
2023-03-08T14:37:48.846Z,5.33
2023-03-08T14:40:26.358Z,7.10
2023-03-08T14:42:56.085Z,7.33
2023-03-08T14:45:34.514Z,5.30
2023-03-08T14:48:35.463Z,5.63
2023-03-08T14:51:18.864Z,6.37
2023-03-08T14:53:58.042Z,4.67
2023-03-08T14:56:24.830Z,5.40
2023-03-08T14:58:53.634Z,5.20
2023-03-08T15:01:39.613Z,5.30
2023-03-08T15:04:25.690Z,6.00
2023-03-08T15:06:54.619Z,7.50
2023-03-08T15:09:22.399Z,6.80
2023-03-08T15:11:52.232Z,5.03
2023-03-08T15:14:18.899Z,6.87
2023-03-08T15:16:45.587Z,8.07
2023-03-08T15:19:13.849Z,8.27
2023-03-08T15:21:41.029Z,8.80
2023-03-08T15:24:10.647Z,8.10
2023-03-08T15:26:37.196Z,8.10
2023-03-08T15:29:03.764Z,8.43
2023-03-08T15:31:31.632Z,6.60
2023-03-08T15:33:58.286Z,5.43
2023-03-08T15:36:25.018Z,7.40
2023-03-08T15:38:51.695Z,11.07
2023-03-08T15:41:18.350Z,9.73
2023-03-08T15:43:45.091Z,7.00
2023-03-08T15:46:13.717Z,9.00
2023-03-08T15:48:40.399Z,13.00
2023-03-08T15:51:11.764Z,9.83
2023-03-08T15:53:38.323Z,8.50
2023-03-08T15:56:05.206Z,8.73
2023-03-08T15:58:31.775Z,9.23
2023-03-08T16:00:58.312Z,9.80
2023-03-08T16:03:30.817Z,10.50
2023-03-08T16:05:58.670Z,9.50
2023-03-08T16:08:27.181Z,10.43
2023-03-08T16:10:53.853Z,9.33
2023-03-08T16:13:22.003Z,10.03
2023-03-08T16:15:49.379Z,10.17
2023-03-08T16:18:17.853Z,9.90
2023-03-08T16:20:46.167Z,10.33
2023-03-08T16:23:13.018Z,9.50
2023-03-08T16:25:42.472Z,8.17
2023-03-08T16:28:10.025Z,7.30
2023-03-08T16:30:39.198Z,9.00
2023-03-08T16:33:05.940Z,7.30
2023-03-08T16:35:32.630Z,8.50
2023-03-08T16:37:59.214Z,9.60
2023-03-08T16:40:30.932Z,10.07
2023-03-08T16:42:58.014Z,8.43
2023-03-08T16:45:24.588Z,8.50
2023-03-08T16:47:51.198Z,9.40
2023-03-08T16:50:17.917Z,9.87
2023-03-08T16:52:44.699Z,9.73
2023-03-08T16:55:12.099Z,9.60
2023-03-08T16:57:40.136Z,8.20
2023-03-08T17:00:09.946Z,10.00
2023-03-08T17:02:36.587Z,8.63
2023-03-08T17:05:03.269Z,9.07
2023-03-08T17:07:29.896Z,8.70
2023-03-08T17:09:57.922Z,9.73
2023-03-08T17:12:24.732Z,14.03
2023-03-08T17:14:54.247Z,9.57
2023-03-08T17:17:20.814Z,10.30
2023-03-08T17:19:51.363Z,11.10
2023-03-08T17:22:17.998Z,10.80
2023-03-08T17:24:44.583Z,13.70
2023-03-08T17:27:11.379Z,18.97
2023-03-08T17:29:38.012Z,15.20
2023-03-08T17:32:04.901Z,15.47
2023-03-08T17:34:31.747Z,13.30
2023-03-08T17:36:58.304Z,11.93
2023-03-08T17:39:25.120Z,14.20
2023-03-08T17:41:51.675Z,13.70
2023-03-08T17:44:18.279Z,13.17
2023-03-08T17:46:44.836Z,13.80
2023-03-08T17:49:13.007Z,12.53
2023-03-08T17:51:39.580Z,13.03
2023-03-08T17:54:07.317Z,12.53
2023-03-08T17:56:36.388Z,13.70
2023-03-08T17:59:03.019Z,15.17
2023-03-08T18:01:31.293Z,12.77
2023-03-08T18:03:58.344Z,14.60
2023-03-08T18:06:34.255Z,13.30
2023-03-08T18:09:13.406Z,14.97
2023-03-08T18:11:41.113Z,17.23
2023-03-08T18:14:10.451Z,16.00
2023-03-08T18:16:37.521Z,16.90
2023-03-08T18:19:05.449Z,18.87
2023-03-08T18:21:33.823Z,15.07
2023-03-08T18:24:00.747Z,18.37
2023-03-08T18:26:28.329Z,13.37
2023-03-08T18:28:55.235Z,15.47
2023-03-08T18:31:25.847Z,16.60
2023-03-08T18:33:54.823Z,13.70
2023-03-08T18:36:22.016Z,12.60
2023-03-08T18:38:48.686Z,15.47
2023-03-08T18:41:18.695Z,17.07
2023-03-08T18:43:45.857Z,18.00
2023-03-08T18:46:13.494Z,16.13
2023-03-08T18:48:41.173Z,17.00
2023-03-08T18:51:08.397Z,21.10
2023-03-08T18:53:35.101Z,19.97
2023-03-08T18:56:03.894Z,21.13
2023-03-08T18:58:30.880Z,17.70
2023-03-08T19:01:00.178Z,18.40
2023-03-08T19:03:27.391Z,16.37
2023-03-08T19:05:54.058Z,16.87
2023-03-08T19:08:21.171Z,18.00
2023-03-08T19:10:53.087Z,18.00
2023-03-08T19:13:19.641Z,16.40
2023-03-08T19:15:46.203Z,16.80
2023-03-08T19:18:12.749Z,15.93
2023-03-08T19:20:41.028Z,18.13
2023-03-08T19:23:09.079Z,15.77
2023-03-08T19:26:00.143Z,17.40
2023-03-08T19:28:27.114Z,21.70
2023-03-08T19:30:53.760Z,19.03
2023-03-08T19:33:30.484Z,18.60
2023-03-08T19:35:58.255Z,20.17
2023-03-08T19:38:24.842Z,23.43
2023-03-08T19:40:51.409Z,20.77
2023-03-08T19:43:17.966Z,21.80
2023-03-08T19:45:50.775Z,18.83
2023-03-08T19:48:17.403Z,19.40
2023-03-08T19:50:47.158Z,21.30
2023-03-08T19:53:13.736Z,22.90
2023-03-08T19:55:50.079Z,23.53
2023-03-08T19:58:17.688Z,23.07
2023-03-08T20:00:44.725Z,22.20
2023-03-08T20:03:13.243Z,23.20
2023-03-08T20:05:45.271Z,26.50
2023-03-08T20:08:12.456Z,25.60
2023-03-08T20:10:39.333Z,25.97
2023-03-08T20:13:06.014Z,22.47
2023-03-08T20:15:32.760Z,24.33
2023-03-08T20:17:59.330Z,22.50
2023-03-08T20:20:27.076Z,20.67
2023-03-08T20:22:53.679Z,22.23
2023-03-08T20:25:20.368Z,27.67
2023-03-08T20:27:46.970Z,28.23
2023-03-08T20:30:13.795Z,22.87
2023-03-08T20:32:41.166Z,23.90
2023-03-08T20:35:11.366Z,24.47
2023-03-08T20:37:37.994Z,26.87
2023-03-08T20:40:06.516Z,25.57
2023-03-08T20:42:34.912Z,26.20
2023-03-08T20:45:01.459Z,27.17
2023-03-08T20:47:28.024Z,26.83
2023-03-08T20:49:54.621Z,26.40
2023-03-08T20:52:21.392Z,26.57
2023-03-08T20:54:47.944Z,26.67
2023-03-08T20:57:14.511Z,23.67
2023-03-08T20:59:41.189Z,26.43
2023-03-08T21:02:10.017Z,25.07
2023-03-08T21:04:36.617Z,26.83
2023-03-08T21:07:03.329Z,27.67
2023-03-08T21:09:29.872Z,23.20
2023-03-08T21:11:56.494Z,25.03
2023-03-08T21:14:23.787Z,25.53
2023-03-08T21:16:51.345Z,34.30
2023-03-08T21:19:19.486Z,33.23
2023-03-08T21:21:46.234Z,30.67
2023-03-08T21:24:21.395Z,26.03
2023-03-08T21:26:48.074Z,29.33
2023-03-08T21:29:17.787Z,30.83
2023-03-08T21:31:48.280Z,34.03
2023-03-08T21:34:16.424Z,33.07
2023-03-08T21:36:44.286Z,40.40
2023-03-08T21:39:11.898Z,46.50
2023-03-08T21:41:42.206Z,42.00
2023-03-08T21:44:15.914Z,31.93
2023-03-08T21:46:43.029Z,31.90
2023-03-08T21:49:17.666Z,31.90
2023-03-08T21:51:44.812Z,30.73
2023-03-08T21:54:11.446Z,30.37
2023-03-08T21:56:38.017Z,26.53
2023-03-08T21:59:04.791Z,30.27
2023-03-08T22:01:32.049Z,26.67
2023-03-08T22:04:00.133Z,29.83
2023-03-08T22:06:27.582Z,27.07
2023-03-08T22:08:54.579Z,32.10
2023-03-08T22:11:21.964Z,30.27
2023-03-08T22:13:50.417Z,32.13
2023-03-08T22:16:17.611Z,26.40
2023-03-08T22:18:44.410Z,28.23
2023-03-08T22:21:10.953Z,27.90
2023-03-08T22:23:37.554Z,27.47
2023-03-08T22:26:08.772Z,29.00
2023-03-08T22:28:36.661Z,30.73
2023-03-08T22:31:09.782Z,28.30
2023-03-08T22:33:36.940Z,34.20
2023-03-08T22:36:07.935Z,30.63
2023-03-08T22:38:35.237Z,30.17
2023-03-08T22:41:02.344Z,32.17
2023-03-08T22:43:28.983Z,29.03
2023-03-08T22:46:04.500Z,32.13
2023-03-08T22:48:31.135Z,36.60
2023-03-08T22:51:10.228Z,32.90
2023-03-08T22:53:37.574Z,34.53
2023-03-08T22:56:04.340Z,31.87
2023-03-08T22:58:31.448Z,34.90
2023-03-08T23:00:58.080Z,40.03
2023-03-08T23:03:24.777Z,35.90
2023-03-08T23:05:51.644Z,33.37
2023-03-08T23:08:18.452Z,34.70
2023-03-08T23:10:45.053Z,33.50
2023-03-08T23:13:16.486Z,32.33
2023-03-08T23:15:48.834Z,37.33
2023-03-08T23:18:15.807Z,36.50
2023-03-08T23:20:42.520Z,38.60
2023-03-08T23:23:09.164Z,37.10
2023-03-08T23:25:40.146Z,35.87
2023-03-08T23:28:07.279Z,42.63
2023-03-08T23:30:33.855Z,35.53
2023-03-08T23:33:00.393Z,37.57
2023-03-08T23:35:27.442Z,38.70
2023-03-08T23:37:53.996Z,32.50
2023-03-08T23:40:20.546Z,36.43
2023-03-08T23:42:47.087Z,41.77
2023-03-08T23:45:13.643Z,40.07
2023-03-08T23:47:40.252Z,38.37
2023-03-08T23:50:07.392Z,37.63
2023-03-08T23:52:33.956Z,38.03
2023-03-08T23:55:00.574Z,39.00
2023-03-08T23:57:27.319Z,36.20
2023-03-08T23:59:53.942Z,38.33
